Time;durP1;ratioP1;P1;durP2;ratioP2;P2;SDS_P1;SDS_P2;PMS_P1;PMS_P2;Temp;Humidity;BMP_temperature;BMP_pressure;BME280_temperature;BME280_humidity;BME280_pressure;Samples;Min_cycle;Max_cycle;Signal;HPM_P1;HPM_P2
2021/08/21 00:00:08;;;;;;;6.03;3.33;;;;;;;12.46;76.09;100430.47;2131389;82;20992;-87
2021/08/21 00:03:11;;;;;;;8.80;4.03;;;;;;;12.41;76.02;100430.98;2130680;82;21079;-86
2021/08/21 00:06:13;;;;;;;8.53;3.80;;;;;;;12.36;76.12;100429.83;2128988;82;21126;-88
2021/08/21 00:09:14;;;;;;;4.47;4.08;;;;;;;12.31;76.08;100429.85;2120830;82;20972;-88
2021/08/21 00:12:16;;;;;;;7.97;4.00;;;;;;;12.29;76.22;100420.37;2123442;82;21544;-87
2021/08/21 00:15:19;;;;;;;6.83;3.60;;;;;;;12.24;76.25;100421.38;2124691;82;20968;-88
2021/08/21 00:18:20;;;;;;;80.03;4.60;;;;;;;12.22;76.28;100430.88;2141663;82;21023;-88
2021/08/21 00:21:21;;;;;;;81.37;4.40;;;;;;;12.25;77.28;100427.05;2129413;82;20972;-86
2021/08/21 00:24:22;;;;;;;63.10;4.72;;;;;;;12.26;77.71;100430.86;2131994;81;21515;-86
2021/08/21 00:27:26;;;;;;;8.00;5.42;;;;;;;12.27;77.82;100431.68;2199263;80;20995;-89
2021/08/21 00:30:27;;;;;;;119.17;5.42;;;;;;;12.20;77.06;100428.88;2200091;80;21077;-86
2021/08/21 00:33:28;;;;;;;92.17;3.60;;;;;;;12.15;77.49;100428.55;2208867;80;20998;-88
2021/08/21 00:36:31;;;;;;;82.62;3.50;;;;;;;12.01;77.29;100429.25;2202996;79;21027;-86
2021/08/21 00:39:32;;;;;;;10.15;4.33;;;;;;;11.82;77.50;100431.72;2181641;80;21019;-88
2021/08/21 00:42:36;;;;;;;7.72;4.58;;;;;;;11.75;77.67;100431.56;2185465;80;21504;-89
2021/08/21 00:45:37;;;;;;;6.55;3.30;;;;;;;11.72;77.62;100435.06;2181909;80;21045;-86
2021/08/21 00:48:38;;;;;;;4.65;3.60;;;;;;;11.69;77.31;100438.05;2185398;79;21559;-89
2021/08/21 00:51:39;;;;;;;22.65;4.22;;;;;;;11.63;77.14;100437.72;2180903;80;21126;-87
2021/08/21 00:54:41;;;;;;;23.83;4.72;;;;;;;11.63;77.42;100435.56;2174022;80;21086;-88
2021/08/21 00:57:42;;;;;;;11.25;5.75;;;;;;;11.64;77.53;100438.04;2188302;80;21041;-88
2021/08/21 01:00:43;;;;;;;19.23;4.40;;;;;;;11.51;77.34;100416.43;2182618;80;21014;-85
2021/08/21 01:03:45;;;;;;;27.52;4.17;;;;;;;11.60;77.54;100444.70;2186890;80;20994;-87
2021/08/21 01:06:46;;;;;;;21.85;5.10;;;;;;;11.52;77.45;100438.05;2184525;80;21489;-87
2021/08/21 01:09:48;;;;;;;8.58;3.80;;;;;;;11.34;77.69;100422.73;2201745;80;21029;-86
2021/08/21 01:12:52;;;;;;;10.75;3.95;;;;;;;11.34;77.69;100422.73;2193461;79;21095;-87
2021/08/21 01:15:55;;;;;;;15.55;4.60;;;;;;;11.46;77.81;100440.03;2191225;80;21457;-88
2021/08/21 01:18:58;;;;;;;8.48;4.45;;;;;;;11.42;77.72;100445.33;2190697;79;21505;-88
2021/08/21 01:21:59;;;;;;;22.52;4.30;;;;;;;11.41;77.80;100441.84;2191493;80;21014;-87
2021/08/21 01:25:03;;;;;;;9.00;4.80;;;;;;;11.37;77.73;100438.34;2189164;80;21505;-88
2021/08/21 01:28:05;;;;;;;5.08;4.03;;;;;;;11.34;78.06;100441.33;2189750;80;21054;-87
2021/08/21 01:31:14;;;;;;;10.05;4.25;;;;;;;11.34;78.15;100439.50;2157561;80;20999;-86
2021/08/21 01:34:18;;;;;;;11.12;4.95;;;;;;;11.37;78.08;100435.69;2192886;80;21064;-86
2021/08/21 01:37:22;;;;;;;12.07;5.45;;;;;;;11.35;78.10;100445.16;2166239;80;21079;-87
2021/08/21 01:40:26;;;;;;;7.53;4.60;;;;;;;11.33;78.18;100434.37;2186983;80;21003;-87
2021/08/21 01:43:27;;;;;;;7.92;5.33;;;;;;;11.33;78.05;100435.19;2175700;80;21022;-88
2021/08/21 01:46:29;;;;;;;30.43;6.50;;;;;;;11.33;77.93;100433.86;2146862;81;21573;-86
2021/08/21 01:49:32;;;;;;;44.73;6.30;;;;;;;11.28;77.85;100432.69;2134061;79;21083;-85
2021/08/21 01:52:35;;;;;;;19.50;5.70;;;;;;;11.24;78.08;100434.85;2158371;81;21039;-87
2021/08/21 01:55:39;;;;;;;11.68;4.80;;;;;;;11.22;78.17;100434.17;2148523;80;21079;-88
2021/08/21 01:58:42;;;;;;;9.40;4.67;;;;;;;11.17;77.98;100429.84;2114631;82;21577;-87
2021/08/21 02:01:49;;;;;;;9.95;5.53;;;;;;;11.13;78.05;100439.97;2099774;82;21093;-88
2021/08/21 02:04:54;;;;;;;13.50;5.05;;;;;;;11.10;78.07;100435.48;2131896;82;21020;-88
2021/08/21 02:07:55;;;;;;;21.12;6.20;;;;;;;11.09;77.81;100433.80;2168434;80;21136;-88
2021/08/21 02:10:57;;;;;;;11.20;5.47;;;;;;;11.04;78.07;100429.00;2146962;80;21006;-89
2021/08/21 02:13:59;;;;;;;8.33;4.08;;;;;;;11.00;78.04;100435.61;2184279;80;21022;-88
2021/08/21 02:17:03;;;;;;;6.47;4.80;;;;;;;10.95;77.97;100432.60;2190290;80;21524;-87
2021/08/21 02:20:11;;;;;;;19.15;5.72;;;;;;;10.89;77.94;100439.39;2147852;81;21019;-87
2021/08/21 02:23:10;;;;;;;6.72;4.67;;;;;;;10.84;78.01;100439.53;2118536;82;21046;-87
2021/08/21 02:26:12;;;;;;;11.20;4.87;;;;;;;10.83;78.19;100436.55;2114423;82;21488;-86
2021/08/21 02:29:15;;;;;;;5.28;4.03;;;;;;;10.79;78.18;100436.55;2100831;83;21055;-86
2021/08/21 02:32:16;;;;;;;6.80;4.67;;;;;;;10.75;78.12;100432.04;2132967;81;21012;-88
2021/08/21 02:35:17;;;;;;;23.70;6.33;;;;;;;10.67;77.99;100438.17;2137104;81;21565;-87
2021/08/21 02:38:19;;;;;;;16.80;4.50;;;;;;;10.63;78.16;100443.44;2150742;81;20943;-88
2021/08/21 02:41:20;;;;;;;26.25;4.15;;;;;;;10.58;78.23;100447.56;2151764;82;20988;-89
2021/08/21 02:44:21;;;;;;;30.65;4.90;;;;;;;10.56;78.46;100446.41;2146927;81;21027;-86
2021/08/21 02:47:22;;;;;;;19.65;3.75;;;;;;;10.53;78.34;100444.91;2142729;81;21472;-85
2021/08/21 02:50:24;;;;;;;30.23;4.37;;;;;;;10.52;78.16;100447.70;2155206;81;21054;-86
2021/08/21 02:53:25;;;;;;;10.82;4.40;;;;;;;10.48;78.36;100448.52;2150866;82;21042;-87
2021/08/21 02:56:26;;;;;;;9.03;5.10;;;;;;;10.46;78.36;100449.66;2145933;82;21005;-86
2021/08/21 02:59:28;;;;;;;12.00;5.75;;;;;;;10.44;78.34;100450.31;2150211;81;21060;-87
2021/08/21 03:02:30;;;;;;;19.95;5.53;;;;;;;10.41;78.34;100450.13;2149242;81;21032;-86
2021/08/21 03:05:31;;;;;;;37.45;6.37;;;;;;;10.41;78.67;100451.95;2152151;81;21074;-88
2021/08/21 03:08:33;;;;;;;14.50;4.50;;;;;;;10.37;78.64;100445.31;2152592;81;21057;-88
2021/08/21 03:11:34;;;;;;;9.45;4.70;;;;;;;10.35;78.62;100449.44;2140446;82;21595;-85
2021/08/21 03:14:53;;;;;;;19.77;4.80;;;;;;;10.34;78.60;100451.77;2055088;85;21052;-86
2021/08/21 03:17:55;;;;;;;10.43;5.08;;;;;;;10.34;78.69;100450.94;2121283;82;21000;-86
2021/08/21 03:20:57;;;;;;;56.13;6.80;;;;;;;10.33;78.70;100458.03;2148025;82;20998;-86
2021/08/21 03:23:58;;;;;;;75.15;5.95;;;;;;;10.32;78.91;100459.86;2139121;81;21564;-87
2021/08/21 03:26:59;;;;;;;79.03;4.97;;;;;;;10.35;79.09;100461.88;2125914;82;21071;-87
2021/08/21 03:30:01;;;;;;;90.72;5.62;;;;;;;10.34;79.08;100465.52;2194250;80;20968;-87
2021/08/21 03:33:08;;;;;;;47.23;6.03;;;;;;;10.32;79.29;100477.10;2166122;80;21003;-88
2021/08/21 03:36:10;;;;;;;29.45;5.60;;;;;;;10.32;79.40;100473.63;2182611;80;21484;-87
2021/08/21 03:39:12;;;;;;;37.78;5.00;;;;;;;10.29;79.36;100480.56;2187715;80;21652;-87
2021/08/21 03:42:13;;;;;;;25.48;5.12;;;;;;;10.27;79.23;100471.43;2196312;80;21006;-88
2021/08/21 03:45:14;;;;;;;37.55;4.33;;;;;;;10.29;79.44;100480.56;2166165;80;20951;-88
2021/08/21 03:48:16;;;;;;;7.95;3.80;;;;;;;10.27;79.24;100482.53;2179641;80;21050;-86
2021/08/21 03:51:17;;;;;;;28.75;4.20;;;;;;;10.25;79.36;100480.02;2190817;80;21074;-87
2021/08/21 03:54:19;;;;;;;23.55;3.70;;;;;;;10.26;79.51;100483.00;2183049;80;21066;-85
2021/08/21 03:57:21;;;;;;;15.28;3.83;;;;;;;10.26;79.51;100490.96;2187908;80;21105;-86
2021/08/21 04:00:22;;;;;;;12.60;4.45;;;;;;;10.23;79.27;100485.97;2182002;80;21049;-87
2021/08/21 04:03:25;;;;;;;19.17;4.37;;;;;;;10.19;79.41;100487.28;2155493;80;21039;-86
2021/08/21 04:06:28;;;;;;;22.80;4.83;;;;;;;10.21;79.52;100497.72;2188596;80;21314;-87
2021/08/21 04:09:29;;;;;;;22.05;4.30;;;;;;;10.23;79.58;100499.73;2190186;80;21433;-88
2021/08/21 04:12:32;;;;;;;5.05;4.55;;;;;;;10.22;79.53;100491.41;2186267;79;21082;-87
2021/08/21 04:15:36;;;;;;;6.05;4.42;;;;;;;10.24;79.61;100496.08;2187626;80;21086;-87
2021/08/21 04:18:37;;;;;;;16.77;4.85;;;;;;;10.27;79.69;100495.30;2182114;80;21441;-86
2021/08/21 04:21:40;;;;;;;10.00;5.30;;;;;;;10.35;79.88;100501.66;2179512;80;21057;-86
2021/08/21 04:24:43;;;;;;;16.40;5.70;;;;;;;10.43;79.91;100503.04;2186761;80;21014;-87
2021/08/21 04:27:44;;;;;;;19.17;5.78;;;;;;;10.52;80.01;100514.03;2201336;80;22552;-87
2021/08/21 04:30:46;;;;;;;10.82;5.08;;;;;;;10.57;79.99;100510.92;2196187;79;21046;-88
2021/08/21 04:33:49;;;;;;;18.85;5.47;;;;;;;10.63;79.99;100514.27;2166512;80;21085;-87
2021/08/21 04:36:51;;;;;;;13.78;6.30;;;;;;;10.69;80.08;100509.15;2166238;80;21035;-88
2021/08/21 04:39:54;;;;;;;20.27;5.87;;;;;;;10.77;80.01;100514.50;2178729;80;21018;-87
2021/08/21 04:42:57;;;;;;;36.30;6.33;;;;;;;10.86;80.19;100511.39;2187050;79;21066;-87
2021/08/21 04:45:59;;;;;;;33.83;6.45;;;;;;;10.99;80.34;100517.59;2191729;79;21175;-86
2021/08/21 04:49:02;;;;;;;33.42;5.87;;;;;;;11.12;80.47;100519.32;2181814;80;21057;-87
2021/08/21 04:52:04;;;;;;;26.17;6.00;;;;;;;11.28;80.43;100508.40;2190797;80;20987;-88
2021/08/21 04:55:06;;;;;;;14.65;6.10;;;;;;;11.44;80.40;100512.43;2179826;80;21026;-90
2021/08/21 04:58:08;;;;;;;46.50;6.47;;;;;;;11.59;80.21;100521.41;2171962;80;21561;-87
2021/08/21 05:01:09;;;;;;;30.68;6.45;;;;;;;11.75;80.37;100522.45;2184146;80;21624;-88
2021/08/21 05:04:12;;;;;;;18.12;6.67;;;;;;;11.97;80.32;100521.84;2186055;80;21545;-86
2021/08/21 05:07:15;;;;;;;16.20;7.35;;;;;;;12.25;80.37;100521.50;2184363;80;21114;-87
2021/08/21 05:10:18;;;;;;;9.68;7.40;;;;;;;12.54;80.37;100524.94;2192875;79;20995;-87
2021/08/21 05:13:19;;;;;;;18.12;6.40;;;;;;;12.78;80.12;100521.37;2187822;80;21055;-86
2021/08/21 05:16:21;;;;;;;14.40;7.35;;;;;;;13.05;79.94;100521.95;2177421;80;21056;-88
2021/08/21 05:19:43;;;;;;;14.70;8.10;;;;;;;13.30;79.80;100520.04;2095677;80;21523;-87
2021/08/21 05:25:48;;;;;;;14.03;8.38;;;;;;;13.98;79.40;100526.42;2171435;80;21038;-87
2021/08/21 05:28:50;;;;;;;14.15;7.70;;;;;;;14.20;79.01;100531.42;2190826;80;21484;-85
2021/08/21 05:31:54;;;;;;;10.88;8.05;;;;;;;14.47;78.82;100535.31;2187767;81;21047;-88
2021/08/21 05:34:55;;;;;;;10.13;7.50;;;;;;;14.83;78.80;100538.66;2166167;81;21535;-86
2021/08/21 05:37:56;;;;;;;9.58;8.28;;;;;;;15.30;78.38;100529.41;2155756;81;21058;-85
2021/08/21 05:40:57;;;;;;;9.60;8.45;;;;;;;15.65;77.82;100526.39;2151637;80;21316;-86
2021/08/21 05:43:58;;;;;;;9.60;8.35;;;;;;;16.02;78.00;100537.89;2160344;80;21547;-88
2021/08/21 05:47:00;;;;;;;8.20;7.40;;;;;;;16.50;77.85;100541.59;2179491;80;21559;-87
2021/08/21 05:50:01;;;;;;;8.65;7.85;;;;;;;17.08;77.22;100540.52;2183015;81;20974;-88
2021/08/21 05:53:03;;;;;;;11.38;8.08;;;;;;;17.55;76.51;100540.19;2159858;81;21048;-89
2021/08/21 05:56:04;;;;;;;11.03;8.20;;;;;;;17.93;76.09;100552.56;2155297;81;21531;-87
2021/08/21 05:59:06;;;;;;;9.13;8.23;;;;;;;18.45;75.56;100547.44;2158865;81;21504;-88
2021/08/21 06:02:07;;;;;;;8.38;7.58;;;;;;;18.93;74.64;100549.87;2159907;79;21012;-84
2021/08/21 06:05:11;;;;;;;8.40;7.60;;;;;;;19.16;73.66;100556.09;2141903;80;21114;-87
2021/08/21 06:08:13;;;;;;;10.53;8.03;;;;;;;19.52;73.26;100558.22;2128699;82;21051;-88
2021/08/21 06:11:17;;;;;;;9.55;7.67;;;;;;;19.96;72.18;100555.70;2153262;81;22481;-87
2021/08/21 06:14:19;;;;;;;9.15;7.62;;;;;;;20.30;71.64;100561.14;2132172;82;21469;-86
2021/08/21 06:17:20;;;;;;;9.50;8.25;;;;;;;20.50;71.09;100558.30;2128411;82;21064;-86
2021/08/21 06:20:21;;;;;;;8.68;7.87;;;;;;;20.59;70.30;100566.42;2139392;81;20990;-88
2021/08/21 06:23:23;;;;;;;9.43;8.45;;;;;;;20.87;70.01;100563.77;2125866;82;21007;-88
2021/08/21 06:26:24;;;;;;;8.65;7.50;;;;;;;21.19;69.29;100561.20;2145745;81;21048;-87
2021/08/21 06:29:25;;;;;;;11.10;8.10;;;;;;;21.58;69.28;100564.48;2188394;80;21039;-88
2021/08/21 06:32:27;;;;;;;10.98;8.20;;;;;;;22.00;68.16;100571.80;2188445;80;21062;-88
2021/08/21 06:35:28;;;;;;;10.70;7.90;;;;;;;22.16;67.28;100567.09;2187741;80;21089;-88
2021/08/21 06:38:29;;;;;;;8.38;7.22;;;;;;;22.39;66.69;100567.67;2183578;80;21007;-87
2021/08/21 06:41:30;;;;;;;9.68;7.62;;;;;;;22.61;66.16;100571.98;2178143;80;21047;-86
2021/08/21 06:44:32;;;;;;;10.30;8.15;;;;;;;22.89;65.81;100565.00;2164764;80;20999;-89
2021/08/21 06:47:35;;;;;;;9.58;8.53;;;;;;;23.12;64.29;100569.06;2190783;80;21073;-88
2021/08/21 06:50:36;;;;;;;9.95;7.33;;;;;;;23.33;64.95;100572.19;2186820;80;21022;-87
2021/08/21 06:53:38;;;;;;;9.25;8.30;;;;;;;23.67;64.24;100566.34;2182799;80;20991;-86
2021/08/21 06:56:39;;;;;;;10.88;8.88;;;;;;;23.91;63.33;100563.84;2188631;80;21117;-89
2021/08/21 06:59:40;;;;;;;12.47;8.78;;;;;;;24.20;62.35;100567.03;2190522;80;20980;-86
2021/08/21 07:02:41;;;;;;;9.28;8.30;;;;;;;24.34;61.81;100557.50;2176064;80;21536;-88
2021/08/21 07:05:43;;;;;;;9.18;7.87;;;;;;;24.45;61.39;100565.30;2185775;80;21069;-87
2021/08/21 07:08:44;;;;;;;9.75;8.73;;;;;;;24.63;61.05;100568.27;2184579;80;21071;-86
2021/08/21 07:11:45;;;;;;;12.80;9.03;;;;;;;24.80;60.79;100569.05;2186003;80;21653;-88
2021/08/21 07:14:46;;;;;;;10.65;8.20;;;;;;;25.04;59.22;100566.41;2186533;80;21379;-86
2021/08/21 07:17:48;;;;;;;9.50;8.18;;;;;;;25.02;59.18;100567.19;2166908;80;21037;-89
2021/08/21 07:20:49;;;;;;;9.23;7.70;;;;;;;25.23;58.98;100574.28;2190997;80;21030;-86
2021/08/21 07:23:50;;;;;;;9.70;8.00;;;;;;;25.36;58.33;100575.23;2186481;80;20995;-86
2021/08/21 07:26:51;;;;;;;11.68;7.75;;;;;;;25.20;57.80;100581.55;2190423;80;21541;-86
2021/08/21 07:29:52;;;;;;;8.13;7.33;;;;;;;25.29;57.24;100581.41;2186325;80;21082;-87
2021/08/21 07:32:53;;;;;;;9.33;7.50;;;;;;;25.49;57.23;100576.21;2192975;80;21011;-87
2021/08/21 07:35:55;;;;;;;12.03;7.30;;;;;;;25.67;56.53;100589.16;2185748;80;21022;-88
2021/08/21 07:38:56;;;;;;;9.85;6.45;;;;;;;25.96;56.39;100590.30;2197684;79;21019;-89
2021/08/21 07:41:57;;;;;;;9.40;6.65;;;;;;;26.17;55.88;100590.77;2200997;79;20935;-87
2021/08/21 07:44:59;;;;;;;6.92;6.20;;;;;;;26.35;53.99;100588.19;2186906;79;21541;-89
2021/08/21 07:48:00;;;;;;;8.43;6.95;;;;;;;26.57;54.34;100585.39;2186540;80;21027;-87
2021/08/21 07:51:01;;;;;;;6.87;6.17;;;;;;;26.82;53.61;100589.64;2196116;80;20983;-88
2021/08/21 07:54:03;;;;;;;9.80;7.05;;;;;;;26.90;52.91;100591.05;2190159;80;20975;-87
2021/08/21 07:57:05;;;;;;;11.08;6.40;;;;;;;26.85;52.57;100594.28;2187107;80;21298;-87
2021/08/21 08:00:08;;;;;;;7.62;6.03;;;;;;;26.88;52.51;100597.29;2185188;80;21025;-88
2021/08/21 08:03:15;;;;;;;8.63;6.58;;;;;;;26.82;51.58;100592.36;2186172;80;21512;-89
2021/08/21 08:06:16;;;;;;;6.40;5.80;;;;;;;26.77;51.42;100592.87;2182008;80;21350;-87
2021/08/21 08:09:17;;;;;;;7.42;5.85;;;;;;;26.88;51.04;100591.03;2179394;80;21454;-88
2021/08/21 08:12:19;;;;;;;8.20;5.92;;;;;;;27.04;50.95;100587.31;2176978;80;20968;-87
2021/08/21 08:15:20;;;;;;;7.12;6.30;;;;;;;27.37;50.47;100594.30;2187867;80;20997;-88
2021/08/21 08:18:21;;;;;;;10.38;6.67;;;;;;;27.66;49.81;100590.56;2187659;80;21006;-87
2021/08/21 08:21:22;;;;;;;7.20;6.22;;;;;;;27.77;49.07;100591.95;2189410;80;21081;-87
2021/08/21 08:24:24;;;;;;;6.75;5.20;;;;;;;27.93;49.39;100589.53;2187307;80;21019;-87
2021/08/21 08:27:25;;;;;;;7.45;5.25;;;;;;;28.05;48.24;100596.94;2192214;80;21038;-87
2021/08/21 08:30:27;;;;;;;5.92;5.33;;;;;;;28.01;46.69;100599.09;2182522;80;21010;-87
2021/08/21 08:33:28;;;;;;;10.40;5.03;;;;;;;27.79;46.36;100596.58;2200253;79;21002;-88
2021/08/21 08:36:29;;;;;;;7.85;5.75;;;;;;;27.68;47.30;100595.20;2185494;80;21536;-89
2021/08/21 08:39:31;;;;;;;7.15;5.62;;;;;;;27.61;46.71;100599.27;2181182;80;21066;-89
2021/08/21 08:42:33;;;;;;;7.22;5.80;;;;;;;27.62;45.70;100597.66;2180851;80;21106;-86
2021/08/21 08:45:35;;;;;;;8.05;5.65;;;;;;;27.64;46.62;100605.00;2196372;80;21100;-87
2021/08/21 08:48:37;;;;;;;7.30;5.35;;;;;;;27.67;46.21;100603.09;2181790;80;21492;-88
2021/08/21 08:51:39;;;;;;;5.05;4.55;;;;;;;27.70;46.23;100599.83;2182039;80;21038;-88
2021/08/21 08:54:41;;;;;;;6.25;5.03;;;;;;;27.83;46.35;100605.90;2177939;80;20998;-86
2021/08/21 08:57:46;;;;;;;8.75;5.37;;;;;;;27.84;45.54;100602.89;2188394;80;21062;-86
2021/08/21 09:00:48;;;;;;;6.80;5.42;;;;;;;27.78;45.12;100601.77;2194774;80;21039;-86
2021/08/21 09:03:49;;;;;;;5.60;4.65;;;;;;;27.69;44.50;100600.11;2181311;80;20974;-87
2021/08/21 09:06:52;;;;;;;7.25;4.80;;;;;;;27.69;44.79;100600.92;2184856;80;21433;-88
2021/08/21 09:10:11;;;;;;;8.85;5.65;;;;;;;27.74;44.31;100601.49;2185706;80;20999;-86
2021/08/21 09:13:15;;;;;;;5.80;5.20;;;;;;;27.68;44.17;100602.03;2184186;80;21130;-88
2021/08/21 09:16:27;;;;;;;8.05;4.87;;;;;;;27.61;44.50;100601.45;2180220;80;20967;-88
2021/08/21 09:19:28;;;;;;;5.17;4.67;;;;;;;27.81;43.65;100595.80;2178075;80;21037;-87
2021/08/21 09:22:30;;;;;;;6.75;5.40;;;;;;;27.91;44.43;100604.83;2195990;80;21516;-85
2021/08/21 09:25:32;;;;;;;6.20;5.08;;;;;;;27.94;43.45;100604.28;2189230;80;20987;-87
2021/08/21 09:28:35;;;;;;;8.55;5.30;;;;;;;27.91;43.22;100610.28;2160273;80;21008;-87
2021/08/21 09:31:37;;;;;;;8.00;5.70;;;;;;;27.51;42.85;100604.16;2134064;82;21069;-87
2021/08/21 09:34:39;;;;;;;6.97;5.53;;;;;;;27.49;42.39;100604.97;2129482;82;21008;-88
2021/08/21 09:37:57;;;;;;;5.92;4.87;;;;;;;27.52;41.76;100608.52;2136164;82;21006;-88
2021/08/21 09:41:06;;;;;;;10.60;4.65;;;;;;;27.48;42.61;100607.39;2131138;82;20984;-88
2021/08/21 09:44:09;;;;;;;6.78;4.35;;;;;;;27.54;43.04;100603.63;2138122;82;21090;-88
2021/08/21 09:47:25;;;;;;;8.45;5.22;;;;;;;27.75;42.64;100600.39;2128700;82;21067;-88
2021/08/21 09:50:33;;;;;;;8.28;4.78;;;;;;;27.72;41.87;100600.38;2133924;82;20982;-86
2021/08/21 09:53:37;;;;;;;7.12;5.20;;;;;;;27.63;42.61;100602.00;2138967;82;20967;-87
2021/08/21 09:56:41;;;;;;;6.30;4.85;;;;;;;27.55;41.93;100605.80;2125437;82;21067;-87
2021/08/21 09:59:44;;;;;;;5.12;4.67;;;;;;;27.42;42.56;100600.30;2141031;82;21074;-88
2021/08/21 10:02:45;;;;;;;6.37;4.10;;;;;;;27.38;41.99;100600.56;2134917;82;21043;-89
2021/08/21 10:05:48;;;;;;;4.53;3.85;;;;;;;27.18;41.66;100601.30;2133480;82;20984;-87
2021/08/21 10:08:57;;;;;;;6.00;4.42;;;;;;;26.92;42.11;100602.50;2139087;82;21043;-87
2021/08/21 10:11:57;;;;;;;6.65;4.80;;;;;;;26.93;42.20;100603.31;2143439;82;21019;-87
2021/08/21 10:14:59;;;;;;;11.15;5.83;;;;;;;26.65;42.38;100599.06;2123360;82;21059;-88
2021/08/21 10:18:01;;;;;;;4.58;4.17;;;;;;;26.75;42.91;100597.23;2138179;82;21050;-88
2021/08/21 10:21:02;;;;;;;4.17;3.77;;;;;;;27.18;42.45;100596.67;2140835;82;21052;-87
2021/08/21 10:24:04;;;;;;;4.78;4.25;;;;;;;27.25;42.57;100593.14;2132498;82;21094;-89
2021/08/21 10:27:23;;;;;;;6.20;4.17;;;;;;;27.03;42.31;100589.73;2133488;82;21568;-86
2021/08/21 10:30:46;;;;;;;5.58;4.75;;;;;;;26.94;42.91;100589.97;2140748;81;21047;-86
2021/08/21 10:33:55;;;;;;;5.75;3.85;;;;;;;27.18;42.69;100596.67;2161841;81;20949;-86
2021/08/21 10:36:58;;;;;;;6.53;4.93;;;;;;;27.38;42.50;100592.39;2141949;81;21498;-89
2021/08/21 10:40:30;;;;;;;5.55;4.45;;;;;;;27.62;41.82;100591.36;2145111;81;20979;-87
2021/08/21 10:43:54;;;;;;;4.67;3.87;;;;;;;27.84;41.71;100592.53;2144199;81;20965;-87
2021/08/21 10:46:55;;;;;;;5.22;4.15;;;;;;;27.67;41.07;100591.38;2151123;81;20995;-88
2021/08/21 10:50:00;;;;;;;6.60;4.75;;;;;;;27.39;41.84;100589.38;2145760;81;20962;-89
2021/08/21 10:53:07;;;;;;;6.17;5.33;;;;;;;27.53;41.38;100585.61;2148549;81;21007;-87
2021/08/21 10:56:12;;;;;;;6.30;4.47;;;;;;;27.58;41.08;100580.73;2143042;82;20989;-87
2021/08/21 10:59:18;;;;;;;4.97;4.37;;;;;;;27.42;40.45;100589.39;2125327;81;21583;-86
2021/08/21 11:02:37;;;;;;;4.35;3.85;;;;;;;27.34;41.17;100580.38;2085266;83;21065;-87
2021/08/21 11:06:07;;;;;;;4.70;4.20;;;;;;;27.43;41.10;100585.60;2152255;81;21494;-87
2021/08/21 11:09:10;;;;;;;5.95;4.45;;;;;;;27.05;40.30;100582.13;2144675;81;21009;-86
2021/08/21 11:12:33;;;;;;;5.12;3.77;;;;;;;26.73;40.52;100588.50;2141347;81;21030;-89
2021/08/21 11:15:35;;;;;;;6.58;4.40;;;;;;;26.87;41.08;100581.23;2166043;81;21058;-88
2021/08/21 11:18:45;;;;;;;4.47;3.67;;;;;;;27.04;41.12;100579.14;2142148;81;21015;-88
2021/08/21 11:21:47;;;;;;;4.55;4.03;;;;;;;27.18;41.05;100578.97;2129269;81;21008;-88
2021/08/21 11:25:00;;;;;;;4.17;3.37;;;;;;;27.26;41.01;100579.81;2171822;81;21001;-87
2021/08/21 11:28:08;;;;;;;3.77;3.47;;;;;;;27.16;40.90;100578.95;2167463;80;21036;-88
2021/08/21 11:31:13;;;;;;;4.75;3.83;;;;;;;26.85;41.02;100579.31;2155993;81;21046;-87
2021/08/21 11:34:15;;;;;;;6.67;4.03;;;;;;;26.81;41.47;100579.84;2148929;81;21101;-88
2021/08/21 11:37:17;;;;;;;3.65;3.33;;;;;;;27.05;40.58;100574.78;2147682;82;21026;-86
2021/08/21 11:40:20;;;;;;;7.08;3.87;;;;;;;27.24;41.47;100580.62;2143711;82;20979;-87
2021/08/21 11:43:30;;;;;;;6.85;3.62;;;;;;;27.37;41.07;100581.20;2156098;81;20946;-87
2021/08/21 11:46:32;;;;;;;4.78;3.30;;;;;;;27.66;40.66;100571.48;2150748;81;21001;-88
2021/08/21 11:49:33;;;;;;;4.10;3.70;;;;;;;27.46;40.60;100571.44;2149977;81;21550;-87
2021/08/21 11:52:34;;;;;;;5.30;3.60;;;;;;;27.31;40.90;100561.84;2145698;82;20972;-87
2021/08/21 11:55:38;;;;;;;5.00;3.98;;;;;;;27.27;40.24;100567.82;2131060;81;21042;-88
2021/08/21 11:58:46;;;;;;;5.55;3.50;;;;;;;26.89;40.70;100570.88;2140378;82;21064;-87
2021/08/21 12:01:50;;;;;;;;;;;;;;;26.70;41.08;100567.80;2153356;81;21114;-89
2021/08/21 12:04:54;;;;;;;6.42;3.17;;;;;;;26.77;41.79;100571.91;2147139;82;20131;-87
2021/08/21 12:07:57;;;;;;;5.65;4.15;;;;;;;26.59;41.01;100571.00;2149951;81;21025;-89
2021/08/21 12:11:02;;;;;;;4.78;3.92;;;;;;;26.33;41.37;100575.41;2153814;81;21001;-87
2021/08/21 12:14:04;;;;;;;4.22;3.85;;;;;;;26.36;41.91;100574.89;2145127;81;21006;-88
2021/08/21 12:17:05;;;;;;;5.10;4.50;;;;;;;26.24;42.10;100568.78;2156723;81;21000;-86
2021/08/21 12:20:07;;;;;;;4.80;4.30;;;;;;;26.14;42.55;100570.90;2144701;81;20975;-88
2021/08/21 12:23:11;;;;;;;7.15;4.22;;;;;;;25.91;42.72;100568.80;2142529;82;21047;-88
2021/08/21 12:26:12;;;;;;;8.53;4.60;;;;;;;25.81;43.22;100572.73;2150064;81;21038;-87
2021/08/21 12:29:30;;;;;;;4.53;4.12;;;;;;;25.67;43.77;100570.14;2133623;81;21518;-87
2021/08/21 12:32:31;;;;;;;4.85;4.25;;;;;;;25.83;43.75;100569.26;2149249;81;20989;-88
2021/08/21 12:35:34;;;;;;;6.25;4.65;;;;;;;25.82;43.84;100570.31;2155940;81;21022;-86
2021/08/21 12:38:36;;;;;;;4.90;4.50;;;;;;;25.65;44.25;100568.22;2152110;82;21070;-87
2021/08/21 12:41:52;;;;;;;5.05;4.47;;;;;;;25.42;43.95;100563.34;2153894;82;21435;-87
2021/08/21 12:44:54;;;;;;;7.15;4.72;;;;;;;25.38;43.94;100559.52;2128500;81;20934;-89
2021/08/21 12:47:55;;;;;;;7.35;4.67;;;;;;;25.05;44.51;100561.25;2152353;81;21576;-86
2021/08/21 12:50:56;;;;;;;4.70;4.30;;;;;;;25.17;44.98;100561.70;2151001;81;20995;-88
2021/08/21 12:54:06;;;;;;;7.25;4.30;;;;;;;25.25;44.66;100551.20;2148100;82;22112;-88
2021/08/21 12:57:18;;;;;;;6.75;4.80;;;;;;;25.07;44.95;100558.30;2153387;81;21436;-87
2021/08/21 13:00:20;;;;;;;4.80;4.33;;;;;;;24.66;45.19;100548.23;2147791;81;21052;-89
2021/08/21 13:03:21;;;;;;;5.17;4.67;;;;;;;24.53;45.81;100553.48;2160102;81;21013;-88
2021/08/21 13:06:22;;;;;;;5.85;4.70;;;;;;;24.35;45.87;100546.93;2143634;81;21054;-88
2021/08/21 13:09:23;;;;;;;5.10;4.60;;;;;;;24.32;46.15;100549.59;2157498;82;21462;-86
2021/08/21 13:12:24;;;;;;;5.70;4.60;;;;;;;24.27;46.52;100548.70;2141532;82;21058;-88
2021/08/21 13:15:26;;;;;;;7.53;4.95;;;;;;;24.19;46.63;100557.23;2136148;81;20985;-89
2021/08/21 13:18:28;;;;;;;6.15;4.62;;;;;;;24.29;46.82;100545.22;2150918;81;21050;-88
2021/08/21 13:21:29;;;;;;;7.10;4.50;;;;;;;24.62;47.52;100549.81;2137576;82;20993;-86
2021/08/21 13:24:32;;;;;;;6.17;4.08;;;;;;;24.91;46.87;100547.77;2152922;82;21516;-88
2021/08/21 13:27:34;;;;;;;7.53;4.22;;;;;;;25.17;46.30;100550.32;2144679;81;21007;-87
2021/08/21 13:30:36;;;;;;;4.87;4.15;;;;;;;25.43;45.98;100547.36;2141348;80;21031;-89
2021/08/21 13:33:37;;;;;;;6.15;4.28;;;;;;;25.35;45.36;100536.94;2150614;81;21372;-89
2021/08/21 13:36:40;;;;;;;6.53;4.37;;;;;;;25.11;45.71;100537.70;2145942;81;20958;-85
2021/08/21 13:39:41;;;;;;;6.92;4.10;;;;;;;25.04;46.09;100535.73;2151483;81;21455;-89
2021/08/21 13:42:43;;;;;;;6.20;5.53;;;;;;;24.91;46.40;100540.98;2131553;81;20985;-87
2021/08/21 13:45:44;;;;;;;6.53;5.00;;;;;;;24.89;46.25;100540.44;2114288;82;21480;-86
2021/08/21 13:48:45;;;;;;;6.53;4.90;;;;;;;24.76;46.60;100534.00;2138630;82;21009;-88
2021/08/21 13:51:46;;;;;;;4.70;4.30;;;;;;;24.69;46.87;100534.70;2151108;82;21011;-88
2021/08/21 13:54:47;;;;;;;8.93;4.70;;;;;;;24.84;47.11;100533.58;2148621;81;21129;-89
2021/08/21 13:57:51;;;;;;;17.87;5.83;;;;;;;25.07;47.20;100530.33;2157309;81;21060;-89
2021/08/21 14:00:51;;;;;;;6.72;4.85;;;;;;;25.19;47.08;100531.05;2144802;80;21018;-89
2021/08/21 14:03:53;;;;;;;10.00;4.70;;;;;;;25.14;47.13;100526.88;2125170;82;21164;-88
2021/08/21 14:06:54;;;;;;;5.83;5.17;;;;;;;25.03;46.85;100529.48;2142667;81;21039;-88
2021/08/21 14:09:55;;;;;;;8.05;5.87;;;;;;;24.88;46.12;100522.48;2136787;81;21481;-86